Los Ranchos del Rio, New Mexico
Current Conditions -  °F | °C
As of 5:51 AM on Monday 20 Oct 2014 (Local Time) from KELP Reporting Station
Scattered Clouds Scattered Clouds  
Wind Chill: 58°   Ceiling: Unl
Heat Index: 58°   Visibility: 10mi
Dew Point: 54°   Wind: 8mph
Humidity: 87%   Direction: 10°N
Pressure: 30.07"   Gusts: NA
Location:  31.8707°N, 106.67°W
Report Text: KELP 201151Z 01007KT 10SM FEW028 FEW080 SCT140 14/12 A3007 RMK AO2 SLP130 70088 T01440122 10167 20139 50000
Loading
Personal Weather Stations






























Interactive Weather Map
Tropical Storm Tracking
New forecast layout! Learn more

10-Day Weather Forecast

Advertisements
Track Severe Weather on mobile